Nearby METAR Reports

 

NZAA - Auckland Intl Ar, New Zealand
Distance from station: SW 18km
Updated: 21/09/2021 02:00
Clear
Clear
 Wind from NW
Wind: NW 9 km/h
Temperature: 10°C
Wind Chill: 9°C
Dew Point: 9°C
Humidity: 94%
Barometer: 1017 hPa
Clouds: Clear
Visibility: 10 km
2021/09/20 14:00 NZAA 201400Z AUTO 31005KT 9999 NCD 10/09 Q1017 NOSIG
NZWN - Wellington Intl, New Zealand
Distance from station: S 493km
Updated: 21/09/2021 02:30
Clear
Clear
 Wind from NNE
Wind: NNE 26 km/h
Temperature: 12°C
Dew Point: 7°C
Humidity: 72%
Barometer: 1011 hPa
Clouds: Clear
Visibility: 10 km
2021/09/20 14:30 NZWN 201430Z AUTO 02014KT 9999 NCD 12/07 Q1011 NOSIG
 
NZCH - Christchurch Int, New Zealand
Distance from station: SSW 759km
Updated: 21/09/2021 02:30
Clear
Clear
 Wind from NNE
Wind: NNE 4 km/h
Temperature: 7°C
Dew Point: 5°C
Humidity: 87%
Barometer: 1005 hPa
Clouds: Clear
Visibility: 10 km
2021/09/20 14:30 NZCH 201430Z AUTO 03002KT 9999 NCD 07/05 Q1005 NOSIG
YSNF - Norfolk Island A, Australia
Distance from station: NW 1091km
Updated: 21/09/2021 02:30
Overcast
Overcast
 Wind from N
Wind: N 7 km/h
Temperature: 16°C
Dew Point: 12°C
Humidity: 77%
Barometer: 1019 hPa
Clouds: Overcast
Visibility: 10 km
Cloud details: Overcast 884 m
2021/09/20 14:30 YSNF 201430Z AUTO 01004KT 9999 // OVC029 16/12 Q1019 RF00.0/000.0